createdAt,value
2023-04-23T00:00:50.604Z,12.31
2023-04-23T00:05:55.440Z,11.96
2023-04-23T00:11:09.324Z,12.08
2023-04-23T00:16:08.785Z,11.82
2023-04-23T00:21:13.587Z,11.96
2023-04-23T00:26:22.920Z,11.88
2023-04-23T00:31:27.447Z,11.72
2023-04-23T00:36:26.986Z,12.28
2023-04-23T00:41:27.499Z,11.91
2023-04-23T00:46:29.197Z,11.22
2023-04-23T00:51:26.955Z,11.54
2023-04-23T00:56:27.219Z,11.39
2023-04-23T01:01:26.445Z,11.32
2023-04-23T01:06:25.694Z,11.54
2023-04-23T01:11:27.263Z,11.70
2023-04-23T01:16:26.924Z,11.68
2023-04-23T01:21:26.580Z,11.84
2023-04-23T01:26:26.031Z,11.61
2023-04-23T01:31:27.902Z,11.84
2023-04-23T01:36:28.185Z,11.52
2023-04-23T01:41:37.402Z,11.33
2023-04-23T01:46:39.122Z,11.48
2023-04-23T01:51:37.621Z,11.46
2023-04-23T01:56:37.910Z,11.27
2023-04-23T02:01:46.936Z,10.77
2023-04-23T02:06:47.601Z,10.60
2023-04-23T02:11:46.750Z,10.82
2023-04-23T02:16:45.632Z,10.84
2023-04-23T02:21:45.361Z,10.95
2023-04-23T02:26:44.782Z,10.84
2023-04-23T02:31:46.352Z,10.77
2023-04-23T02:36:45.925Z,10.69
2023-04-23T02:41:44.222Z,10.74
2023-04-23T02:46:46.685Z,10.94
2023-04-23T02:51:47.308Z,10.94
2023-04-23T02:56:49.310Z,10.69
2023-04-23T03:01:47.716Z,10.67
2023-04-23T03:06:48.087Z,10.99
2023-04-23T03:11:54.210Z,10.70
2023-04-23T03:16:53.972Z,11.05
2023-04-23T03:21:55.041Z,10.92
2023-04-23T03:26:55.156Z,10.55
2023-04-23T03:31:56.168Z,10.91
2023-04-23T03:36:55.835Z,11.04
2023-04-23T03:42:03.004Z,11.06
2023-04-23T03:47:04.069Z,10.99
2023-04-23T03:52:04.550Z,11.04
2023-04-23T03:57:05.856Z,11.00
2023-04-23T04:02:15.313Z,11.20
2023-04-23T04:07:16.332Z,11.05
2023-04-23T04:12:17.768Z,10.96
2023-04-23T04:17:18.166Z,11.09
2023-04-23T04:22:20.141Z,11.18
2023-04-23T04:27:19.431Z,11.24
2023-04-23T04:32:18.201Z,11.54
2023-04-23T04:37:23.248Z,11.44
2023-04-23T04:42:25.900Z,11.54
2023-04-23T04:47:24.607Z,11.61
2023-04-23T04:52:22.843Z,11.58
2023-04-23T04:57:23.019Z,11.92
2023-04-23T05:02:23.655Z,12.06
2023-04-23T05:07:24.734Z,12.25
2023-04-23T05:12:33.893Z,12.36
2023-04-23T05:17:35.564Z,12.43
2023-04-23T05:22:36.056Z,12.48
2023-04-23T05:27:39.874Z,12.18
2023-04-23T05:32:41.215Z,12.72
2023-04-23T05:37:39.277Z,12.71
2023-04-23T05:42:38.595Z,13.12
2023-04-23T05:47:37.574Z,13.04
2023-04-23T05:52:37.800Z,13.23
2023-04-23T05:57:39.598Z,13.01
2023-04-23T06:02:42.749Z,13.18
2023-04-23T06:07:42.220Z,13.32
2023-04-23T06:12:42.341Z,13.45
2023-04-23T06:17:44.969Z,13.59
2023-04-23T06:22:42.867Z,13.67
2023-04-23T06:27:40.879Z,13.79
2023-04-23T06:32:47.553Z,13.97
2023-04-23T06:37:45.147Z,13.74
2023-04-23T06:42:45.663Z,13.89
2023-04-23T06:48:04.194Z,13.91
2023-04-23T06:53:12.726Z,14.10
2023-04-23T06:58:16.593Z,14.21
2023-04-23T07:03:17.627Z,14.33
2023-04-23T07:08:16.643Z,14.64
2023-04-23T07:13:16.033Z,14.94
2023-04-23T07:18:23.341Z,15.30
2023-04-23T07:23:22.765Z,15.56
2023-04-23T07:28:20.323Z,15.71
2023-04-23T07:33:19.371Z,16.07
2023-04-23T07:38:17.966Z,16.40
2023-04-23T07:43:17.047Z,16.73
2023-04-23T07:48:19.384Z,16.84
2023-04-23T07:53:30.800Z,17.23
2023-04-23T07:58:30.348Z,17.37
2023-04-23T08:03:29.396Z,17.56
2023-04-23T08:08:28.285Z,17.72
2023-04-23T08:13:26.639Z,17.62
2023-04-23T08:18:27.962Z,17.87
2023-04-23T08:23:30.596Z,18.16
2023-04-23T08:28:35.009Z,17.66
2023-04-23T08:33:34.045Z,17.96
2023-04-23T08:38:32.592Z,17.97
2023-04-23T08:43:45.131Z,18.28
2023-04-23T08:48:47.624Z,18.43
2023-04-23T08:53:46.936Z,18.36
2023-04-23T08:58:50.714Z,18.57
2023-04-23T09:03:49.932Z,18.65
2023-04-23T09:08:48.712Z,18.77
2023-04-23T09:13:52.784Z,18.81
2023-04-23T09:19:03.307Z,18.55
2023-04-23T09:29:38.468Z,18.61
2023-04-23T09:34:38.463Z,18.87
2023-04-23T09:39:37.303Z,19.07
2023-04-23T09:44:38.256Z,19.20
2023-04-23T09:49:50.047Z,19.71
2023-04-23T09:54:51.064Z,19.95
2023-04-23T09:59:57.380Z,19.79
2023-04-23T10:10:23.046Z,20.11
2023-04-23T10:15:31.830Z,19.95
2023-04-23T10:20:49.577Z,19.68
2023-04-23T10:25:50.036Z,19.33
2023-04-23T10:37:37.473Z,19.44
2023-04-23T10:43:01.443Z,18.86
2023-04-23T10:48:00.973Z,19.68
2023-04-23T10:53:52.746Z,19.92
2023-04-23T10:58:57.740Z,20.09
2023-04-23T11:03:57.061Z,20.06
2023-04-23T11:08:56.944Z,20.29
2023-04-23T11:13:55.611Z,19.79
2023-04-23T11:19:20.791Z,20.32
2023-04-23T11:24:34.474Z,19.93
2023-04-23T11:29:43.045Z,20.27
2023-04-23T11:34:53.306Z,20.35
2023-04-23T11:39:51.838Z,20.02
2023-04-23T11:45:02.650Z,19.77
2023-04-23T11:50:02.218Z,19.39
2023-04-23T11:55:06.694Z,19.42
2023-04-23T12:00:15.664Z,19.59
2023-04-23T12:05:20.292Z,20.17
2023-04-23T12:10:25.390Z,21.08
2023-04-23T12:15:23.596Z,21.26
2023-04-23T12:20:23.914Z,20.77
2023-04-23T12:25:25.115Z,21.36
2023-04-23T12:30:24.229Z,20.69
2023-04-23T12:35:45.121Z,20.88
2023-04-23T12:40:49.185Z,20.77
2023-04-23T12:45:53.141Z,21.30
2023-04-23T12:50:52.261Z,21.89
2023-04-23T12:55:50.432Z,22.20
2023-04-23T13:00:51.765Z,22.52
2023-04-23T13:05:52.063Z,22.78
2023-04-23T13:10:54.010Z,23.02
2023-04-23T13:16:03.823Z,24.51
2023-04-23T13:21:05.150Z,27.23
2023-04-23T13:26:09.353Z,26.41
2023-04-23T13:31:21.434Z,26.32
2023-04-23T13:36:24.498Z,25.80
2023-04-23T13:41:24.006Z,26.00
2023-04-23T13:46:42.661Z,25.92
2023-04-23T13:51:54.470Z,26.51
2023-04-23T13:56:56.652Z,26.67
2023-04-23T14:02:05.157Z,26.33
2023-04-23T14:07:19.942Z,24.68
2023-04-23T14:12:20.223Z,25.97
2023-04-23T14:17:24.069Z,25.95
2023-04-23T14:22:24.509Z,25.80
2023-04-23T14:27:24.135Z,25.29
2023-04-23T14:32:23.976Z,24.92
2023-04-23T14:37:24.064Z,22.74
2023-04-23T14:42:24.687Z,23.29
2023-04-23T14:47:27.440Z,22.92
2023-04-23T14:52:28.995Z,22.91
2023-04-23T14:57:29.313Z,22.79
2023-04-23T15:02:30.686Z,23.99
2023-04-23T15:07:34.279Z,23.76
2023-04-23T15:12:53.362Z,25.29
2023-04-23T15:17:52.941Z,25.78
2023-04-23T15:23:05.926Z,25.24
2023-04-23T15:28:05.816Z,23.76
2023-04-23T15:33:05.184Z,24.09
2023-04-23T15:38:18.962Z,23.44
2023-04-23T15:43:19.490Z,22.79
2023-04-23T15:48:21.940Z,23.62
2023-04-23T15:53:23.159Z,22.41
2023-04-23T15:58:25.869Z,21.83
2023-04-23T16:03:25.915Z,22.46
2023-04-23T16:08:25.956Z,22.66
2023-04-23T16:13:29.083Z,22.57
2023-04-23T16:18:28.916Z,22.37
2023-04-23T16:23:27.986Z,21.98
2023-04-23T16:28:27.195Z,21.80
2023-04-23T16:33:28.862Z,21.96
2023-04-23T16:38:28.158Z,22.12
2023-04-23T16:43:27.649Z,21.08
2023-04-23T16:48:26.388Z,21.04
2023-04-23T16:53:30.023Z,20.83
2023-04-23T16:58:33.280Z,20.69
2023-04-23T17:03:33.956Z,20.60
2023-04-23T17:08:37.053Z,20.16
2023-04-23T17:13:36.495Z,19.60
2023-04-23T17:18:39.170Z,19.60
2023-04-23T17:23:38.985Z,18.98
2023-04-23T17:28:43.357Z,18.88
2023-04-23T17:33:49.782Z,19.10
2023-04-23T17:38:51.885Z,18.79
2023-04-23T17:44:02.934Z,18.75
2023-04-23T17:49:07.964Z,18.48
2023-04-23T17:54:21.089Z,18.67
2023-04-23T18:05:10.380Z,17.96
2023-04-23T18:10:09.322Z,18.26
2023-04-23T18:15:19.793Z,17.82
2023-04-23T18:20:29.536Z,17.64
2023-04-23T18:25:37.036Z,17.86
2023-04-23T18:30:36.408Z,17.66
2023-04-23T18:35:43.230Z,17.34
2023-04-23T18:40:42.184Z,17.36
2023-04-23T18:45:41.827Z,17.55
2023-04-23T18:50:51.133Z,17.51
2023-04-23T18:55:51.506Z,17.17
2023-04-23T19:00:50.293Z,16.82
2023-04-23T19:05:50.776Z,16.88
2023-04-23T19:10:52.106Z,16.86
2023-04-23T19:15:53.970Z,16.68
2023-04-23T19:21:04.662Z,16.29
2023-04-23T19:26:15.970Z,16.71
2023-04-23T19:32:01.573Z,16.58
2023-04-23T19:37:19.413Z,16.53
2023-04-23T19:42:42.784Z,16.40
2023-04-23T19:53:14.513Z,16.66
2023-04-23T19:58:16.124Z,16.44
2023-04-23T20:03:15.871Z,16.37
2023-04-23T20:08:29.332Z,16.35
2023-04-23T20:13:29.431Z,16.24
2023-04-23T20:18:32.546Z,16.20
2023-04-23T20:23:36.372Z,15.99
2023-04-23T20:28:34.784Z,15.66
2023-04-23T20:33:36.186Z,15.64
2023-04-23T20:38:38.260Z,15.61
2023-04-23T20:43:40.026Z,15.38
2023-04-23T20:49:09.107Z,15.65
2023-04-23T20:54:08.146Z,15.40
2023-04-23T20:59:06.404Z,15.39
2023-04-23T21:04:13.858Z,15.40
2023-04-23T21:09:13.195Z,15.17
2023-04-23T21:14:11.537Z,14.75
2023-04-23T21:19:10.321Z,15.27
2023-04-23T21:24:10.976Z,14.80
2023-04-23T21:29:10.967Z,15.01
2023-04-23T21:34:10.701Z,14.73
2023-04-23T21:39:13.224Z,14.81
2023-04-23T21:44:13.943Z,14.82
2023-04-23T21:49:13.453Z,14.79
2023-04-23T21:54:12.253Z,14.91
2023-04-23T21:59:19.573Z,14.58
2023-04-23T22:04:22.559Z,14.74
2023-04-23T22:09:22.735Z,14.84
2023-04-23T22:14:21.734Z,14.86
2023-04-23T22:19:21.566Z,14.38
2023-04-23T22:24:23.306Z,14.19
2023-04-23T22:29:22.297Z,13.85
2023-04-23T22:34:21.754Z,13.87
2023-04-23T22:39:21.547Z,13.86
2023-04-23T22:44:26.774Z,14.16
2023-04-23T22:49:27.105Z,13.83
2023-04-23T22:54:35.374Z,13.80
2023-04-23T22:59:40.241Z,14.13
2023-04-23T23:04:39.666Z,13.98
2023-04-23T23:09:41.566Z,13.90
2023-04-23T23:14:40.981Z,14.20
2023-04-23T23:19:39.649Z,13.89
2023-04-23T23:24:42.130Z,13.69
2023-04-23T23:29:43.311Z,13.56
2023-04-23T23:34:42.091Z,13.58
2023-04-23T23:39:41.918Z,13.27
2023-04-23T23:44:39.831Z,13.66
2023-04-23T23:49:42.819Z,13.81
2023-04-23T23:54:44.710Z,13.65
2023-04-23T23:59:43.211Z,13.25
